Main page
METAR-TAF:

METAR-TAF

Airports :

Memmingen, Germany

latitude: 47-59-33N, longitude: 10-14-37E, elevation: 633 m

Current weather observation

The report was made 6 hours and 21 minutes ago, at 20:20 UTC
Wind 8 kt from the Southwest
Temperature 12°C
Humidity 94%
Pressure 1010 hPa
Visibility 10 km or more
Few clouds at a height of 3100 ft
Broken clouds at a height of 6200 ft
light rain

METAR: EDJA 252020Z 23008KT 9999 -RA FEW031 BKN062 12/11 Q1010

Time: 04:41 (02:41 UTC)

Forecast

The report was made 9 hours and 41 minutes ago, at 17:00 UTC
Forecast valid from 25 at 18 UTC to 26 at 03 UTC
Wind 10 kt from the West/Southwest
Visibility: 9000 m
Scattered clouds at a height of 1000 ft
Broken clouds at a height of 2000 ft
Temporary
from 25 at 18 UTC to 25 at 24 UTC
Visibility: 4000 m
Broken clouds at a height of 600 ft
Overcast at a height of 1200 ft
rain

TAF: EDJA 251700Z 2518/2603 24010KT 9000 SCT010 BKN020 TEMPO 2518/2524 4000 RA BKN006 OVC012

Weather observations and forecasts of more than 4000 airports (METAR and TAF reports).

The available stations are represented by yellow and red dots on the map.

Hover mouse over dot to see the name of the station.

Then click to see weather observations and forecasts.

To change the map : click on the green buttons with a black cross to zoom in, on the green button with a dash to zoom out, or on the green arrows for adjacent maps.


METAR-TAF: